Portada
METAR-TAF:

METAR-TAF

Aeroports :

Nukus, Uzbekistan

latitud: 42-28-48N, longitud: 059-37-48E, altitud: 77 m

Observació

L'informe es va fer fa 46 minuts, a les 03:30 UTC
Vent 2 kt del Nord-Est
Temperatura -10°C
Humitat 85%
Pressió 1025 hPa
Visibilitat 10 km o més
sense núvols per sota de 1500 mi sense presència de cumulonimbus.

METAR: UTNN 280330Z 05002KT CAVOK M10/M12 Q1025 R33/CLRD60 NOSIG

Hora: 09:16 (04:16 UTC)

Pronòstic

L'informe es va fer fa 5 hores i 16 minuts, a les 23:00 UTC
Pronòstic vàlid del 28 a les 00 UTC al 28 a les 24 UTC
Vent 8 kt del Nord-Est amb ràfegues de 18 kt
Visibilitat 10 km o més
sense núvols per sota de 1500 mi sense presència de cumulonimbus.
Temporalment
l' 28 a les 01 UTC al 28 a les 04 UTC
Visibilitat: 0600 m
a una alçada de 200 ft
boira gebradora
Temporalment
l' 28 a les 06 UTC al 28 a les 12 UTC
Vent 10 kt del Est amb ràfegues de 20 kt

TAF: UTNN 272300Z 2800/2824 04008G18KT CAVOK TEMPO 2801/2804 0600 FZFG VV002 TEMPO 2806/2812 08010G20KT

Observacions i pronòstics meteorològics de més de 4000 aeroports (METAR i TAF).

Les estacions disponibles són els punts grocs i vermells al mapa.

Posi el ratolí al punt desitjat per veure el nom de l'estació.

Feu clic per veure les observacions i els pronòstics meteorològics.

Per canviar el mapa: feu clic els botons verds amb una creu de color negre per apropar; al botó verd amb un guió per allunyar la imatge; o en les fletxes verdes per a mapes adjacents.


METAR-TAF: